Pagrindinis puslapis
METAR-TAF:

METAR-TAF

Oro uostai :

Kiruna, Švedija

platuma: 67-49N, ilguma: 020-20E, Aukštis: 452 m

Dabartinis oras

Ataskaita buvo paskelbta 10 minutes, ne 10:20 UTC
Ramus vėjas
Temperatūra -10°C
Drėgmė 92%
Slėgis 978 hPa
Matomumas 10 km arba daugiau
nėra debesų žemiau 1500 m ir nėra kamuolinių lietaus debesų

METAR: ESNQ 091020Z 00000KT CAVOK M10/M11 Q0978

Laikas: 11:30 (10:30 UTC)

Prognozė

Ataskaita buvo paskelbta 2 valandos ir 0 minutes, ne 08:30 UTC
Prognozė galioja nuo 09 metu 09 UTC su 09 metu 18 UTC
Vėjas 7 kt iš Šiaurės
Matomumas: 7000 m
Su prošvaistėmis ne aukštis 3000 ft
sniegas
Laikinai
nuo 09 metu 09 UTC su 09 metu 11 UTC
Matomumas: 2500 m
ne aukštis 900 ft

TAF: ESNQ 090830Z 0909/0918 35007KT 7000 -SN BKN030 TEMPO 0909/0911 2500 VV009

Orai ataskaitas ir orų prognozės (METAR, TAF).

turimą stotys yra geltonos ir raudonos taškus žemėlapyje.

Perkelti pele per norėdami pamatyti stoties vardą.

Tada spustelėkite, norėdami matyti oro stebėjimo ir prognozės.

Norėdami pakeisti žemėlapį: spustelėkite ant žalios mygtukų su juodo kryžiaus žemyn,; žalią mygtuką su brūkšneliu, jei norite nutolinti; arba žalių rodyklių gretimoms žemėlapius.


METAR-TAF: